createdAt,value
2019-05-01T00:01:50.038Z,6.50
2019-05-01T00:04:37.481Z,6.40
2019-05-01T00:07:15.495Z,6.40
2019-05-01T00:09:45.535Z,6.30
2019-05-01T00:12:15.642Z,6.30
2019-05-01T00:14:45.637Z,6.30
2019-05-01T00:17:16.063Z,6.20
2019-05-01T00:19:46.231Z,6.20
2019-05-01T00:22:16.163Z,6.30
2019-05-01T00:24:46.111Z,6.20
2019-05-01T00:27:16.020Z,6.20
2019-05-01T00:29:45.995Z,6.20
2019-05-01T00:32:15.863Z,6.20
2019-05-01T00:34:45.910Z,6.10
2019-05-01T00:37:15.729Z,6.10
2019-05-01T00:39:46.022Z,6.00
2019-05-01T00:42:15.858Z,6.00
2019-05-01T00:44:45.970Z,6.00
2019-05-01T00:47:20.525Z,6.00
2019-05-01T00:49:50.243Z,6.00
2019-05-01T00:52:20.458Z,5.90
2019-05-01T00:54:52.468Z,5.90
2019-05-01T00:57:41.430Z,5.80
2019-05-01T01:00:42.818Z,5.80
2019-05-01T01:03:08.446Z,5.80
2019-05-01T01:05:38.326Z,5.90
2019-05-01T01:08:08.460Z,5.90
2019-05-01T01:10:39.065Z,5.80
2019-05-01T01:13:10.301Z,5.70
2019-05-01T01:15:40.387Z,5.70
2019-05-01T01:18:10.282Z,5.70
2019-05-01T01:20:40.345Z,5.70
2019-05-01T01:23:10.414Z,5.60
2019-05-01T01:25:40.635Z,5.60
2019-05-01T01:28:10.523Z,5.50
2019-05-01T01:30:41.930Z,5.50
2019-05-01T01:33:14.636Z,5.50
2019-05-01T01:35:44.730Z,5.50
2019-05-01T01:38:14.807Z,5.50
2019-05-01T01:40:45.665Z,5.50
2019-05-01T01:43:52.958Z,5.40
2019-05-01T01:46:24.867Z,5.40
2019-05-01T01:48:58.190Z,5.40
2019-05-01T01:51:28.695Z,5.40
2019-05-01T01:53:59.106Z,5.40
2019-05-01T01:56:29.238Z,5.30
2019-05-01T01:58:59.143Z,5.20
2019-05-01T02:01:57.755Z,5.40
2019-05-01T02:04:39.918Z,5.20
2019-05-01T02:07:09.881Z,5.20
2019-05-01T02:09:40.255Z,5.20
2019-05-01T02:12:13.419Z,5.20
2019-05-01T02:14:46.074Z,5.20
2019-05-01T02:17:16.239Z,5.20
2019-05-01T02:19:46.162Z,5.20
2019-05-01T02:22:16.181Z,5.10
2019-05-01T02:24:46.063Z,5.10
2019-05-01T02:27:21.626Z,5.10
2019-05-01T02:29:54.925Z,5.10
2019-05-01T02:32:27.006Z,5.10
2019-05-01T02:34:57.751Z,5.10
2019-05-01T02:37:28.712Z,5.10
2019-05-01T02:40:01.119Z,5.20
2019-05-01T02:42:32.890Z,5.10
2019-05-01T02:45:04.832Z,5.20
2019-05-01T02:47:36.466Z,5.20
2019-05-01T02:50:08.247Z,5.10
2019-05-01T02:52:40.299Z,5.00
2019-05-01T02:55:22.677Z,5.00
2019-05-01T02:57:53.194Z,5.10
2019-05-01T03:00:23.107Z,5.10
2019-05-01T03:02:53.540Z,5.10
2019-05-01T03:05:23.736Z,5.10
2019-05-01T03:07:53.976Z,5.10
2019-05-01T03:10:24.274Z,5.00
2019-05-01T03:12:54.952Z,5.10
2019-05-01T03:15:28.003Z,5.00
2019-05-01T03:18:20.276Z,5.00
2019-05-01T03:21:10.681Z,5.00
2019-05-01T03:23:44.944Z,4.90
2019-05-01T03:26:15.400Z,4.90
2019-05-01T03:28:45.820Z,4.90
2019-05-01T03:31:15.902Z,4.90
2019-05-01T03:33:45.872Z,5.00
2019-05-01T03:36:16.107Z,5.10
2019-05-01T03:38:45.992Z,5.00
2019-05-01T03:41:15.984Z,5.00
2019-05-01T03:43:46.932Z,5.00
2019-05-01T03:46:17.522Z,4.90
2019-05-01T03:48:47.584Z,4.90
2019-05-01T03:51:17.708Z,4.90
2019-05-01T03:53:47.804Z,4.90
2019-05-01T03:56:18.809Z,4.90
2019-05-01T03:58:49.216Z,4.90
2019-05-01T04:01:28.779Z,4.90
2019-05-01T04:04:01.911Z,4.80
2019-05-01T04:06:33.531Z,4.80
2019-05-01T04:09:04.998Z,4.90
2019-05-01T04:11:34.931Z,4.90
2019-05-01T04:14:08.528Z,4.80
2019-05-01T04:16:39.594Z,4.80
2019-05-01T04:19:10.101Z,4.80
2019-05-01T04:21:46.002Z,4.80
2019-05-01T04:24:16.503Z,4.80
2019-05-01T04:26:48.674Z,4.80
2019-05-01T04:29:36.070Z,4.70
2019-05-01T04:32:12.269Z,4.70
2019-05-01T04:34:50.314Z,4.60
2019-05-01T04:37:21.427Z,4.60
2019-05-01T04:39:51.898Z,4.60
2019-05-01T04:42:21.790Z,4.60
2019-05-01T04:44:51.919Z,4.60
2019-05-01T04:47:21.956Z,4.60
2019-05-01T04:49:51.992Z,4.60
2019-05-01T04:52:22.092Z,4.60
2019-05-01T04:54:52.261Z,4.60
2019-05-01T04:57:23.900Z,4.60
2019-05-01T04:59:53.798Z,4.70
2019-05-01T05:02:30.854Z,4.70
2019-05-01T05:05:01.587Z,4.70
2019-05-01T05:07:31.762Z,4.80
2019-05-01T05:10:02.228Z,4.80
2019-05-01T05:12:49.522Z,4.90
2019-05-01T05:15:27.134Z,4.90
2019-05-01T05:17:57.258Z,5.00
2019-05-01T05:20:27.726Z,5.00
2019-05-01T05:22:57.997Z,5.10
2019-05-01T05:25:30.559Z,5.20
2019-05-01T05:28:00.855Z,5.30
2019-05-01T05:30:34.296Z,5.40
2019-05-01T05:33:17.827Z,5.40
2019-05-01T05:35:39.860Z,5.50
2019-05-01T05:38:42.931Z,5.60
2019-05-01T05:41:13.799Z,5.80
2019-05-01T05:43:44.174Z,5.80
2019-05-01T05:46:14.183Z,5.90
2019-05-01T05:48:44.469Z,5.90
2019-05-01T05:51:40.828Z,6.00
2019-05-01T05:54:32.603Z,6.10
2019-05-01T05:57:11.407Z,6.20
2019-05-01T05:59:46.597Z,6.30
2019-05-01T06:02:27.542Z,6.40
2019-05-01T06:05:11.630Z,6.40
2019-05-01T06:08:02.447Z,6.50
2019-05-01T06:10:41.869Z,6.60
2019-05-01T06:13:21.856Z,6.70
2019-05-01T06:16:00.103Z,6.80
2019-05-01T06:18:39.336Z,6.90
2019-05-01T06:21:14.911Z,6.90
2019-05-01T06:24:11.606Z,7.00
2019-05-01T06:26:41.970Z,7.10
2019-05-01T06:29:12.448Z,7.10
2019-05-01T06:31:42.431Z,7.30
2019-05-01T06:34:12.578Z,7.30
2019-05-01T06:36:44.335Z,7.40
2019-05-01T06:39:14.755Z,7.50
2019-05-01T06:41:44.951Z,7.60
2019-05-01T06:44:44.345Z,7.60
2019-05-01T06:47:23.131Z,7.70
2019-05-01T06:50:04.067Z,7.90
2019-05-01T06:52:33.135Z,8.00
2019-05-01T06:55:03.415Z,8.00
2019-05-01T06:57:33.527Z,8.10
2019-05-01T07:00:08.041Z,8.30
2019-05-01T07:02:38.279Z,8.50
2019-05-01T07:05:14.753Z,8.60
2019-05-01T07:07:43.229Z,8.70
2019-05-01T07:10:13.601Z,8.80
2019-05-01T07:12:43.756Z,8.90
2019-05-01T07:15:13.779Z,8.90
2019-05-01T07:17:47.680Z,9.00
2019-05-01T07:20:21.998Z,9.10
2019-05-01T07:22:52.814Z,9.10
2019-05-01T07:25:22.649Z,9.30
2019-05-01T07:27:53.950Z,9.40
2019-05-01T07:30:37.355Z,9.50
2019-05-01T07:33:07.518Z,9.60
2019-05-01T07:35:38.424Z,9.70
2019-05-01T07:38:08.935Z,9.80
2019-05-01T07:40:39.242Z,9.90
2019-05-01T07:43:40.223Z,9.90
2019-05-01T07:46:38.465Z,10.00
2019-05-01T07:49:12.995Z,10.20
2019-05-01T07:51:49.821Z,10.40
2019-05-01T07:54:20.781Z,10.50
2019-05-01T07:56:51.218Z,10.50
2019-05-01T07:59:22.804Z,10.70
2019-05-01T08:01:59.146Z,10.80
2019-05-01T08:04:36.786Z,10.90
2019-05-01T08:07:00.878Z,11.00
2019-05-01T08:09:30.815Z,11.20
2019-05-01T08:12:00.663Z,11.30
2019-05-01T08:14:30.542Z,11.50
2019-05-01T08:17:00.618Z,11.60
2019-05-01T08:19:40.799Z,11.70
2019-05-01T08:22:16.285Z,11.80
2019-05-01T08:24:46.603Z,11.90
2019-05-01T08:27:35.766Z,11.90
2019-05-01T08:30:25.867Z,12.10
2019-05-01T08:33:17.991Z,12.00
2019-05-01T08:35:47.880Z,12.10
2019-05-01T08:38:17.612Z,12.10
2019-05-01T08:40:50.800Z,12.30
2019-05-01T08:43:19.490Z,12.50
2019-05-01T08:46:20.250Z,12.50
2019-05-01T08:48:57.534Z,12.60
2019-05-01T08:51:30.112Z,12.70
2019-05-01T08:53:59.552Z,12.80
2019-05-01T08:56:29.355Z,12.80
2019-05-01T08:58:59.150Z,13.00
2019-05-01T09:01:29.136Z,13.00
2019-05-01T09:04:12.114Z,13.20
2019-05-01T09:06:34.804Z,13.20
2019-05-01T09:09:07.827Z,13.20
2019-05-01T09:11:36.251Z,13.30
2019-05-01T09:14:06.143Z,13.50
2019-05-01T09:16:35.862Z,13.60
2019-05-01T09:19:05.731Z,13.70
2019-05-01T09:21:37.912Z,13.90
2019-05-01T09:24:06.950Z,14.10
2019-05-01T09:26:50.247Z,14.30
2019-05-01T09:29:26.010Z,14.50
2019-05-01T09:31:56.184Z,15.00
2019-05-01T09:34:26.142Z,15.20
2019-05-01T09:36:56.152Z,15.20
2019-05-01T09:39:27.566Z,15.60
2019-05-01T09:41:57.618Z,15.60
2019-05-01T09:44:27.413Z,15.80
2019-05-01T09:46:57.181Z,16.00
2019-05-01T09:49:27.222Z,16.30
2019-05-01T09:52:07.458Z,16.70
2019-05-01T09:54:42.978Z,17.10
2019-05-01T09:57:12.074Z,17.20
2019-05-01T09:59:43.278Z,17.10
2019-05-01T10:02:13.832Z,17.40
2019-05-01T10:04:43.666Z,17.60
2019-05-01T10:07:13.455Z,17.70
2019-05-01T10:09:47.254Z,17.90
2019-05-01T10:12:14.819Z,18.00
2019-05-01T10:14:44.526Z,18.10
2019-05-01T10:17:14.522Z,18.10
2019-05-01T10:19:44.218Z,18.10
2019-05-01T10:22:14.013Z,18.10
2019-05-01T10:24:44.017Z,18.00
2019-05-01T10:27:17.212Z,18.20
2019-05-01T10:30:12.157Z,18.50
2019-05-01T10:32:57.779Z,18.70
2019-05-01T10:35:41.984Z,18.90
2019-05-01T10:38:04.656Z,19.10
2019-05-01T10:40:36.113Z,19.00
2019-05-01T10:43:06.375Z,18.70
2019-05-01T10:45:36.222Z,18.60
2019-05-01T10:48:06.108Z,18.50
2019-05-01T10:50:35.899Z,18.30
2019-05-01T10:53:06.042Z,18.20
2019-05-01T10:55:35.831Z,18.50
2019-05-01T10:58:06.162Z,18.50
2019-05-01T11:00:38.010Z,18.70
2019-05-01T11:03:08.887Z,18.70
2019-05-01T11:05:38.815Z,18.50
2019-05-01T11:08:08.935Z,18.90
2019-05-01T11:10:39.021Z,19.00
2019-05-01T11:13:09.219Z,18.70
2019-05-01T11:15:39.025Z,18.60
2019-05-01T11:18:08.846Z,18.70
2019-05-01T11:20:38.681Z,18.90
2019-05-01T11:23:08.479Z,18.80
2019-05-01T11:25:38.834Z,19.10
2019-05-01T11:28:08.702Z,19.10
2019-05-01T11:30:39.243Z,19.30
2019-05-01T11:33:14.828Z,19.40
2019-05-01T11:36:10.015Z,19.20
2019-05-01T11:38:51.186Z,19.50
2019-05-01T11:41:42.947Z,19.80
2019-05-01T11:44:13.066Z,19.80
2019-05-01T11:46:42.888Z,20.00
2019-05-01T11:49:12.718Z,19.70
2019-05-01T11:51:42.506Z,19.40
2019-05-01T11:54:12.210Z,20.10
2019-05-01T11:56:42.217Z,20.40
2019-05-01T11:59:12.347Z,20.30
2019-05-01T12:01:42.037Z,20.20
2019-05-01T12:04:11.889Z,20.50
2019-05-01T12:06:42.087Z,20.40
2019-05-01T12:09:11.863Z,20.60
2019-05-01T12:11:43.612Z,20.60
2019-05-01T12:14:13.402Z,20.70
2019-05-01T12:17:20.465Z,20.60
2019-05-01T12:19:50.567Z,20.50
2019-05-01T12:22:21.208Z,20.70
2019-05-01T12:24:51.879Z,21.00
2019-05-01T12:27:21.819Z,20.90
2019-05-01T12:29:51.830Z,20.60
2019-05-01T12:32:21.787Z,20.50
2019-05-01T12:34:51.966Z,20.50
2019-05-01T12:37:31.551Z,21.00
2019-05-01T12:40:02.036Z,20.80
2019-05-01T12:42:32.392Z,21.00
2019-05-01T12:45:02.174Z,21.00
2019-05-01T12:47:47.626Z,21.30
2019-05-01T12:50:18.032Z,20.60
2019-05-01T12:53:03.914Z,21.00
2019-05-01T12:55:53.139Z,21.00
2019-05-01T12:58:22.855Z,21.70
2019-05-01T13:01:01.590Z,22.00
2019-05-01T13:03:37.522Z,21.50
2019-05-01T13:06:07.343Z,21.40
2019-05-01T13:08:37.443Z,21.60
2019-05-01T13:11:07.243Z,21.30
2019-05-01T13:13:37.027Z,21.30
2019-05-01T13:16:07.102Z,21.80
2019-05-01T13:18:37.209Z,21.60
2019-05-01T13:21:07.024Z,21.40
2019-05-01T13:23:36.711Z,21.50
2019-05-01T13:26:23.679Z,21.70
2019-05-01T13:29:01.406Z,21.90
2019-05-01T13:31:56.390Z,21.80
2019-05-01T13:34:26.644Z,22.40
2019-05-01T13:37:03.200Z,22.70
2019-05-01T13:39:28.346Z,22.90
2019-05-01T13:41:58.475Z,22.90
2019-05-01T13:44:28.341Z,23.10
2019-05-01T13:46:58.101Z,23.10
2019-05-01T13:49:27.908Z,22.20
2019-05-01T13:51:57.870Z,22.20
2019-05-01T13:54:27.662Z,22.40
2019-05-01T13:56:57.591Z,22.40
2019-05-01T13:59:27.568Z,22.90
2019-05-01T14:01:57.328Z,23.10
2019-05-01T14:04:32.291Z,23.30
2019-05-01T14:07:02.154Z,23.00
2019-05-01T14:09:34.243Z,23.10
2019-05-01T14:12:04.097Z,23.10
2019-05-01T14:14:33.847Z,23.70
2019-05-01T14:17:07.775Z,23.90
2019-05-01T14:19:39.506Z,23.60
2019-05-01T14:22:28.392Z,23.00
2019-05-01T14:25:05.267Z,22.90
2019-05-01T14:27:35.108Z,23.50
2019-05-01T14:30:06.063Z,23.70
2019-05-01T14:32:35.854Z,23.20
2019-05-01T14:35:06.097Z,22.90
2019-05-01T14:37:36.127Z,22.60
2019-05-01T14:40:06.421Z,22.90
2019-05-01T14:42:39.941Z,23.30
2019-05-01T14:45:10.123Z,23.60
2019-05-01T14:47:39.907Z,23.00
2019-05-01T14:50:10.070Z,23.40
2019-05-01T14:52:39.815Z,23.30
2019-05-01T14:55:09.819Z,23.10
2019-05-01T14:57:39.879Z,22.70
2019-05-01T15:00:10.294Z,22.70
2019-05-01T15:02:40.484Z,22.60
2019-05-01T15:05:10.449Z,22.90
2019-05-01T15:07:43.853Z,23.10
2019-05-01T15:10:11.883Z,23.30
2019-05-01T15:12:43.758Z,23.00
2019-05-01T15:15:26.419Z,22.50
2019-05-01T15:18:11.331Z,21.90
2019-05-01T15:20:41.100Z,22.30
2019-05-01T15:23:10.902Z,22.70
2019-05-01T15:25:40.786Z,22.70
2019-05-01T15:28:10.594Z,23.10
2019-05-01T15:30:41.982Z,23.00
2019-05-01T15:33:11.777Z,22.70
2019-05-01T15:35:42.085Z,22.70
2019-05-01T15:38:12.163Z,23.30
2019-05-01T15:40:56.868Z,23.40
2019-05-01T15:43:31.875Z,23.30
2019-05-01T15:46:01.655Z,23.30
2019-05-01T15:48:31.650Z,23.10
2019-05-01T15:51:01.528Z,23.00
2019-05-01T15:53:31.284Z,22.90
2019-05-01T15:56:03.367Z,22.80
2019-05-01T15:58:33.127Z,22.40
2019-05-01T16:01:02.891Z,22.30
2019-05-01T16:03:32.859Z,21.90
2019-05-01T16:06:03.676Z,21.90
2019-05-01T16:08:33.650Z,21.60
2019-05-01T16:11:10.028Z,21.70
2019-05-01T16:13:39.874Z,21.80
2019-05-01T16:16:09.709Z,21.60
2019-05-01T16:18:39.556Z,21.40
2019-05-01T16:21:09.485Z,21.30
2019-05-01T16:23:39.295Z,21.40
2019-05-01T16:26:10.649Z,21.10
2019-05-01T16:28:40.575Z,21.10
2019-05-01T16:31:10.583Z,20.90
2019-05-01T16:33:43.498Z,20.80
2019-05-01T16:36:13.551Z,20.80
2019-05-01T16:38:57.049Z,21.10
2019-05-01T16:41:28.292Z,21.20
2019-05-01T16:43:58.058Z,21.20
2019-05-01T16:46:28.103Z,20.90
2019-05-01T16:48:58.428Z,20.80
2019-05-01T16:51:29.037Z,20.60
2019-05-01T16:53:58.868Z,20.60
2019-05-01T16:56:29.234Z,20.50
2019-05-01T16:58:59.062Z,20.40
2019-05-01T17:01:39.949Z,20.30
2019-05-01T17:04:19.318Z,20.20
2019-05-01T17:07:06.970Z,20.20
2019-05-01T17:09:51.187Z,20.10
2019-05-01T17:12:23.050Z,19.90
2019-05-01T17:14:53.502Z,19.80
2019-05-01T17:17:24.100Z,19.70
2019-05-01T17:19:54.005Z,19.70
2019-05-01T17:22:23.762Z,19.70
2019-05-01T17:24:53.538Z,19.60
2019-05-01T17:27:23.981Z,19.60
2019-05-01T17:29:53.708Z,19.30
2019-05-01T17:32:23.426Z,19.10
2019-05-01T17:34:53.985Z,19.00
2019-05-01T17:37:23.782Z,18.80
2019-05-01T17:39:53.752Z,18.70
2019-05-01T17:42:28.522Z,18.60
2019-05-01T17:44:59.635Z,18.40
2019-05-01T17:47:30.457Z,18.20
2019-05-01T17:50:00.207Z,18.00
2019-05-01T17:52:30.321Z,17.80
2019-05-01T17:55:01.442Z,17.60
2019-05-01T17:57:33.611Z,17.40
2019-05-01T18:00:05.050Z,17.30
2019-05-01T18:02:45.827Z,17.20
2019-05-01T18:05:43.803Z,17.10
2019-05-01T18:08:13.515Z,16.90
2019-05-01T18:10:43.511Z,16.90
2019-05-01T18:13:13.560Z,16.80
2019-05-01T18:15:43.401Z,16.80
2019-05-01T18:18:15.106Z,16.60
2019-05-01T18:20:45.522Z,16.60
2019-05-01T18:23:33.280Z,16.40
2019-05-01T18:26:10.062Z,16.40
2019-05-01T18:29:00.830Z,16.30
2019-05-01T18:31:31.851Z,16.10
2019-05-01T18:34:02.774Z,15.90
2019-05-01T18:36:37.859Z,15.70
2019-05-01T18:39:27.374Z,15.60
2019-05-01T18:42:15.915Z,15.50
2019-05-01T18:44:47.535Z,15.40
2019-05-01T18:47:17.419Z,15.50
2019-05-01T18:49:51.055Z,15.50
2019-05-01T18:52:21.391Z,15.40
2019-05-01T18:54:51.468Z,15.20
2019-05-01T18:57:21.502Z,15.00
2019-05-01T18:59:51.557Z,14.90
2019-05-01T19:02:25.048Z,14.80
2019-05-01T19:04:53.423Z,14.60
2019-05-01T19:07:23.279Z,14.40
2019-05-01T19:09:53.447Z,14.30
2019-05-01T19:12:23.307Z,14.40
2019-05-01T19:14:53.142Z,14.50
2019-05-01T19:17:22.958Z,14.50
2019-05-01T19:19:53.230Z,14.20
2019-05-01T19:22:23.186Z,14.00
2019-05-01T19:24:53.759Z,13.80
2019-05-01T19:27:24.431Z,13.80
2019-05-01T19:29:57.678Z,13.80
2019-05-01T19:32:26.345Z,13.70
2019-05-01T19:34:56.926Z,13.60
2019-05-01T19:37:30.597Z,13.60
2019-05-01T19:39:59.762Z,13.60
2019-05-01T19:42:29.661Z,13.50
2019-05-01T19:44:59.623Z,13.50
2019-05-01T19:47:29.821Z,13.50
2019-05-01T19:50:06.546Z,13.60
2019-05-01T19:52:32.469Z,13.50
2019-05-01T19:55:06.354Z,13.40
2019-05-01T19:57:36.749Z,13.40
2019-05-01T20:00:07.736Z,13.20
2019-05-01T20:02:40.366Z,13.00
2019-05-01T20:05:11.216Z,13.00
2019-05-01T20:07:41.119Z,13.00
2019-05-01T20:10:15.906Z,13.10
2019-05-01T20:12:47.634Z,13.10
2019-05-01T20:15:19.877Z,12.90
2019-05-01T20:17:49.295Z,12.70
2019-05-01T20:20:19.135Z,12.60
2019-05-01T20:22:53.108Z,12.50
2019-05-01T20:25:21.186Z,12.40
2019-05-01T20:27:53.193Z,12.40
2019-05-01T20:30:23.197Z,12.40
2019-05-01T20:32:53.373Z,12.40
2019-05-01T20:35:23.859Z,12.40
2019-05-01T20:37:54.905Z,12.30
2019-05-01T20:40:25.264Z,12.50
2019-05-01T20:42:55.151Z,12.40
2019-05-01T20:45:25.173Z,12.40
2019-05-01T20:47:55.149Z,12.30
2019-05-01T20:50:25.070Z,12.20
2019-05-01T20:52:54.810Z,12.00
2019-05-01T20:55:24.766Z,12.00
2019-05-01T20:58:13.673Z,11.90
2019-05-01T21:00:43.784Z,12.00
2019-05-01T21:03:18.291Z,12.00
2019-05-01T21:06:07.705Z,12.00
2019-05-01T21:09:00.018Z,12.10
2019-05-01T21:11:33.934Z,12.00
2019-05-01T21:14:16.990Z,11.80
2019-05-01T21:16:37.896Z,11.80
2019-05-01T21:19:07.602Z,11.80
2019-05-01T21:21:37.487Z,12.00
2019-05-01T21:24:07.920Z,11.90
2019-05-01T21:26:38.029Z,11.80
2019-05-01T21:29:07.955Z,11.80
2019-05-01T21:31:37.887Z,11.70
2019-05-01T21:34:08.022Z,11.80
2019-05-01T21:36:38.054Z,11.70
2019-05-01T21:39:08.211Z,11.60
2019-05-01T21:41:38.637Z,11.70
2019-05-01T21:44:08.466Z,11.70
2019-05-01T21:46:39.233Z,11.60
2019-05-01T21:49:09.446Z,11.60
2019-05-01T21:51:44.352Z,11.50
2019-05-01T21:54:11.063Z,11.40
2019-05-01T21:56:41.572Z,11.30
2019-05-01T21:59:12.702Z,11.20
2019-05-01T22:01:42.567Z,11.20
2019-05-01T22:04:12.518Z,11.20
2019-05-01T22:06:46.788Z,11.20
2019-05-01T22:09:20.816Z,11.10
2019-05-01T22:11:50.810Z,11.00
2019-05-01T22:14:39.794Z,10.90
2019-05-01T22:17:16.676Z,10.80
2019-05-01T22:19:46.615Z,10.90
2019-05-01T22:22:26.374Z,10.70
2019-05-01T22:25:15.329Z,10.80
2019-05-01T22:27:48.747Z,10.70
2019-05-01T22:30:30.335Z,10.70
2019-05-01T22:33:04.651Z,10.70
2019-05-01T22:35:37.719Z,10.60
2019-05-01T22:38:08.302Z,10.60
2019-05-01T22:40:47.479Z,10.50
2019-05-01T22:43:18.300Z,10.30
2019-05-01T22:45:48.638Z,10.20
2019-05-01T22:48:20.638Z,10.20
2019-05-01T22:50:54.502Z,10.20
2019-05-01T22:53:24.431Z,10.30
2019-05-01T22:55:57.174Z,10.30
2019-05-01T22:58:26.050Z,10.30
2019-05-01T23:01:03.374Z,10.20
2019-05-01T23:03:41.136Z,10.10
2019-05-01T23:06:11.463Z,10.00
2019-05-01T23:08:41.725Z,9.90
2019-05-01T23:11:19.840Z,9.90
2019-05-01T23:13:44.115Z,9.90
2019-05-01T23:16:16.842Z,9.80
2019-05-01T23:18:51.943Z,9.80
2019-05-01T23:21:19.329Z,9.90
2019-05-01T23:23:50.830Z,9.80
2019-05-01T23:26:20.861Z,9.80
2019-05-01T23:28:50.695Z,9.80
2019-05-01T23:31:21.078Z,9.80
2019-05-01T23:33:51.837Z,9.80
2019-05-01T23:36:23.763Z,9.70
2019-05-01T23:38:53.842Z,9.60
2019-05-01T23:41:44.742Z,9.60
2019-05-01T23:43:58.175Z,9.60
2019-05-01T23:46:27.228Z,9.50
2019-05-01T23:48:57.046Z,9.40
2019-05-01T23:51:28.579Z,9.30
2019-05-01T23:53:58.342Z,9.40
2019-05-01T23:56:31.112Z,9.30
2019-05-01T23:59:00.055Z,9.30
